Portada
METAR-TAF:

METAR-TAF

Aeroports :

Al-Ula, Aràbia Saudita

latitud: 26-29-00N, longitud: 038-07-01E, altitud: 624 m

Observació

L'informe es va fer fa 2 hores i 28 minuts, a les 20:00 UTC
Vent calma
Temperatura 24°C
Humitat 54%
Pressió 1015 hPa
Visibilitat: 8000 m
Escasses núvols a una alçada de 4000 ft

METAR: OEAO 132000Z 00000KT 8000 FEW040 24/14 Q1015

Hora: 01:28 (22:28 UTC)

Pronòstic

L'informe es va fer fa 11 hores i 28 minuts, a les 11:00 UTC
Pronòstic vàlid del 13 a les 12 UTC al 14 a les 18 UTC
Vent 8 kt del Sud/Sud-Oest amb ràfegues de 18 kt
Visibilitat: 7000 m
Núvols disperses a una alçada de 4000 ft
Temporalment
l' 13 a les 12 UTC al 13 a les 22 UTC
Visibilitat: 4000 m
Escasses núvols a una alçada de 3500 ft, Cumulonimbus.
Cel ennuvolat a una alçada de 4000 ft
torb alta de pols, tempesta, pluja

TAF: OEAO 131100Z 1312/1418 20008G18KT 7000 SCT040 TEMPO 1312/1322 4000 BLDU TSRA FEW035CB BKN040

Observacions i pronòstics meteorològics de més de 4000 aeroports (METAR i TAF).

Les estacions disponibles són els punts grocs i vermells al mapa.

Posi el ratolí al punt desitjat per veure el nom de l'estació.

Feu clic per veure les observacions i els pronòstics meteorològics.

Per canviar el mapa: feu clic els botons verds amb una creu de color negre per apropar; al botó verd amb un guió per allunyar la imatge; o en les fletxes verdes per a mapes adjacents.


METAR-TAF: